NEW MELONES RESERVOIR (NML)

Elevation: 1135' · STANISLAUS R basin · Operator: US Bureau of Reclamation

Provisional data, subject to change.
Query executed Sunday at 8:31:43   clock

Select a sensor type for a plot of data.
Note: Reservoir Flows are daily averages.

Earlier

Date RES ELE    STORAGE    RES CHG    TOC STO    ABV TOC    OUTFLOW    INFLOW    EVAP    FNF    RIV REL    PPT INC    SPILL    DIS PWR   
 FEET   AF   AF   AF   AF   CFS   CFS   CFS   CFS   CFS   INCHES   CFS   CFS  
04/02/2016 881.62 620063 1173 2057500 -1437437 1179 1796 26 2069 0 0.00 0 1179
04/03/2016 881.50 619423 -640 2063750 -1444327 2202 1919 40 2637 -- -- -- 2202
04/04/2016 881.96 621876 2453 2070000 -1448124 836 2134 35 2900 0 0.00 0 836
04/05/2016 882.25 623429 1553 2076250 -1452821 1244 2063 36 2852 0 0.00 0 1244
04/06/2016 882.17 623000 -- 2082500 -1459500 2097 1917 36 2858 0 0.00 0 2097
04/07/2016 882.23 623322 322 2088750 -1465428 1620 1820 38 2948 0 0.00 0 1620
04/08/2016 882.37 624072 750 2095000 -1470928 2035 2444 31 3626 0 0.00 0 2035
04/09/2016 882.81 626431 2359 2101250 -1474819 1591 2806 26 4305 0 1.50 0 1591
04/10/2016 883.35 629335 2904 2107500 -1478165 1181 2652 7 3937 0 0.58 0 1181
04/11/2016 883.67 631059 1724 2113750 -1482691 1499 2378 10 3561 0 0.00 0 1499
04/12/2016 884.01 632891 1832 2120000 -1487109 1253 2201 24 3228 0 0.00 0 1253
04/13/2016 884.66 636412 3521 2126250 -1489838 172 1975 28 2976 0 0.00 0 172
04/14/2016 885.16 639125 2713 2132500 -1493375 948 2318 2 3223 0 0.04 0 948
04/15/2016 885.66 641848 2723 2138750 -1496902 751 2186 62 2743 0 0.00 0 751
04/16/2016 886.17 644631 2783 2145000 -1500369 456 1905 46 2335 0 0.00 0 456
04/17/2016 886.46 646219 1588 2151250 -1505031 961 1796 34 2271 0 0.00 0 961
04/18/2016 886.70 647533 1314 2157500 -1509967 1205 1918 51 2571 0 0.00 0 1205
04/19/2016 886.38 645781 -1752 2163750 -1517969 2841 2000 42 2960 0 0.00 0 2841
04/20/2016 886.02 643810 -1971 2170000 -1526190 3152 2202 44 3211 0 0.00 0 3152
04/21/2016 885.33 640051 -3759 2176250 -1536199 3887 2031 39 3113 0 0.00 0 3887
04/22/2016 885.10 638799 -1252 2182500 -1543701 2994 2414 51 3603 0 0.00 0 2994
04/23/2016 884.86 637496 -1303 2188750 -1551254 2865 2220 12 3081 0 0.47 0 2865
04/24/2016 884.85 637441 -55 2195000 -1557559 2014 2025 39 2680 0 0.00 0 2014
04/25/2016 884.42 635112 -2329 2201250 -1566138 3234 2093 33 2436 0 0.00 0 3234
04/26/2016 883.82 631867 -3245 2207500 -1575633 3738 2135 33 2285 0 0.00 0 3738
04/27/2016 883.30 629065 -2802 2213750 -1584685 3431 2049 31 2121 0 0.00 0 3431
04/28/2016 882.47 624608 -- 2220000 -1595392 3974 1746 19 1794 0 0.35 0 3974
04/29/2016 882.06 622411 -2197 2226250 -1603839 2876 1801 33 1769 0 0.00 0 2876
04/30/2016 882.01 622143 -268 2232500 -1610357 1924 1831 42 1849 0 0.05 0 1924
05/01/2016 -- -- -- -- -- -- -- -- -- -- -- -- --

Later | Latest

Warning! This data is preliminary and subject to revision.

Show NML Map | Plot NML Data | 1 Month NML Data | Real-Time NML Data | NML Info